Berryton, Kansas
Current Conditions -  °F | °C
As of 3:03 AM on Friday 19 Dec 2014 (Local Time) from KFOE Reporting Station
Haze Haze  
Wind Chill: 31°   Ceiling: 400
Heat Index: 31°   Visibility: 6mi
Dew Point: 28°   Wind: 3mph
Humidity: 89%   Direction: 330°NNW
Pressure: 30.25"   Gusts: NA
Location:  38.94°N, 95.63°W
Report Text: KFOE 190903Z AUTO 33003KT 6SM BR OVC004 M01/M02 A3025 RMK AO2 T10061022
Loading
Personal Weather Stations






























Interactive Weather Map New forecast layout! Learn more

10-Day Weather Forecast

Advertisements
Track Severe Weather on mobile